sensor_id;sensor_type;location;lat;lon;timestamp;P1;durP1;ratioP1;P2;durP2;ratioP2
8293;SDS011;4185;41.506;24.938;2022-08-02T00:01:52;6.03;;;4.40;;
8293;SDS011;4185;41.506;24.938;2022-08-02T00:04:19;4.67;;;4.27;;
8293;SDS011;4185;41.506;24.938;2022-08-02T00:06:46;5.97;;;4.60;;
8293;SDS011;4185;41.506;24.938;2022-08-02T00:09:13;5.00;;;4.60;;
8293;SDS011;4185;41.506;24.938;2022-08-02T00:11:40;5.27;;;4.70;;
8293;SDS011;4185;41.506;24.938;2022-08-02T00:14:07;5.00;;;4.40;;
8293;SDS011;4185;41.506;24.938;2022-08-02T00:16:34;5.53;;;4.80;;
8293;SDS011;4185;41.506;24.938;2022-08-02T00:19:02;5.30;;;4.80;;
8293;SDS011;4185;41.506;24.938;2022-08-02T00:21:29;5.33;;;4.83;;
8293;SDS011;4185;41.506;24.938;2022-08-02T00:23:56;6.27;;;5.07;;
8293;SDS011;4185;41.506;24.938;2022-08-02T00:26:23;5.87;;;4.60;;
8293;SDS011;4185;41.506;24.938;2022-08-02T00:28:50;5.43;;;4.93;;
8293;SDS011;4185;41.506;24.938;2022-08-02T00:31:17;5.03;;;4.43;;
8293;SDS011;4185;41.506;24.938;2022-08-02T00:33:44;4.83;;;4.40;;
8293;SDS011;4185;41.506;24.938;2022-08-02T00:36:12;5.67;;;5.13;;
8293;SDS011;4185;41.506;24.938;2022-08-02T00:38:39;5.30;;;4.80;;
8293;SDS011;4185;41.506;24.938;2022-08-02T00:41:10;5.17;;;4.77;;
8293;SDS011;4185;41.506;24.938;2022-08-02T00:43:38;4.80;;;4.40;;
8293;SDS011;4185;41.506;24.938;2022-08-02T00:46:05;5.57;;;4.90;;
8293;SDS011;4185;41.506;24.938;2022-08-02T00:48:32;5.03;;;4.63;;
8293;SDS011;4185;41.506;24.938;2022-08-02T00:50:59;4.40;;;4.10;;
8293;SDS011;4185;41.506;24.938;2022-08-02T00:53:27;5.20;;;4.70;;
8293;SDS011;4185;41.506;24.938;2022-08-02T00:55:54;6.83;;;5.13;;
8293;SDS011;4185;41.506;24.938;2022-08-02T00:58:21;5.67;;;5.17;;
8293;SDS011;4185;41.506;24.938;2022-08-02T01:00:48;5.90;;;5.40;;
8293;SDS011;4185;41.506;24.938;2022-08-02T01:03:15;7.90;;;4.97;;
8293;SDS011;4185;41.506;24.938;2022-08-02T01:05:42;5.57;;;5.00;;
8293;SDS011;4185;41.506;24.938;2022-08-02T01:08:09;5.30;;;4.90;;
8293;SDS011;4185;41.506;24.938;2022-08-02T01:10:37;7.10;;;4.73;;
8293;SDS011;4185;41.506;24.938;2022-08-02T01:13:05;5.10;;;4.70;;
8293;SDS011;4185;41.506;24.938;2022-08-02T01:15:32;5.83;;;4.60;;
8293;SDS011;4185;41.506;24.938;2022-08-02T01:18:05;5.13;;;4.63;;
8293;SDS011;4185;41.506;24.938;2022-08-02T01:23:44;5.10;;;4.60;;
8293;SDS011;4185;41.506;24.938;2022-08-02T01:26:33;5.27;;;4.70;;
8293;SDS011;4185;41.506;24.938;2022-08-02T01:29:09;5.47;;;4.57;;
8293;SDS011;4185;41.506;24.938;2022-08-02T01:31:45;4.97;;;4.47;;
8293;SDS011;4185;41.506;24.938;2022-08-02T01:34:18;4.70;;;4.30;;
8293;SDS011;4185;41.506;24.938;2022-08-02T01:36:56;5.77;;;4.60;;
8293;SDS011;4185;41.506;24.938;2022-08-02T01:39:28;5.20;;;4.70;;
8293;SDS011;4185;41.506;24.938;2022-08-02T01:41:59;5.33;;;4.87;;
8293;SDS011;4185;41.506;24.938;2022-08-02T01:44:31;6.60;;;5.00;;
8293;SDS011;4185;41.506;24.938;2022-08-02T01:47:01;4.77;;;4.37;;
8293;SDS011;4185;41.506;24.938;2022-08-02T01:49:31;5.10;;;4.63;;
8293;SDS011;4185;41.506;24.938;2022-08-02T01:52:00;4.87;;;4.47;;
8293;SDS011;4185;41.506;24.938;2022-08-02T01:54:47;5.10;;;4.50;;
8293;SDS011;4185;41.506;24.938;2022-08-02T01:57:16;5.17;;;4.67;;
8293;SDS011;4185;41.506;24.938;2022-08-02T01:59:47;5.50;;;5.00;;
8293;SDS011;4185;41.506;24.938;2022-08-02T02:02:16;4.83;;;4.43;;
8293;SDS011;4185;41.506;24.938;2022-08-02T02:04:45;4.97;;;4.53;;
8293;SDS011;4185;41.506;24.938;2022-08-02T02:07:14;4.63;;;4.07;;
8293;SDS011;4185;41.506;24.938;2022-08-02T02:09:43;5.17;;;4.47;;
8293;SDS011;4185;41.506;24.938;2022-08-02T02:12:11;5.10;;;4.57;;
8293;SDS011;4185;41.506;24.938;2022-08-02T02:14:40;5.93;;;4.30;;
8293;SDS011;4185;41.506;24.938;2022-08-02T02:17:10;4.97;;;4.57;;
8293;SDS011;4185;41.506;24.938;2022-08-02T02:19:39;5.10;;;4.50;;
8293;SDS011;4185;41.506;24.938;2022-08-02T02:22:07;5.30;;;4.80;;
8293;SDS011;4185;41.506;24.938;2022-08-02T02:24:34;5.93;;;5.07;;
8293;SDS011;4185;41.506;24.938;2022-08-02T02:27:01;5.50;;;5.00;;
8293;SDS011;4185;41.506;24.938;2022-08-02T02:29:30;6.00;;;5.40;;
8293;SDS011;4185;41.506;24.938;2022-08-02T02:31:59;5.53;;;5.03;;
8293;SDS011;4185;41.506;24.938;2022-08-02T02:34:29;4.93;;;4.50;;
8293;SDS011;4185;41.506;24.938;2022-08-02T02:37:05;5.27;;;4.80;;
8293;SDS011;4185;41.506;24.938;2022-08-02T02:39:37;5.60;;;5.20;;
8293;SDS011;4185;41.506;24.938;2022-08-02T02:42:07;5.50;;;5.07;;
8293;SDS011;4185;41.506;24.938;2022-08-02T02:44:38;5.43;;;4.93;;
8293;SDS011;4185;41.506;24.938;2022-08-02T02:47:06;5.90;;;5.30;;
8293;SDS011;4185;41.506;24.938;2022-08-02T02:49:36;6.80;;;5.33;;
8293;SDS011;4185;41.506;24.938;2022-08-02T02:52:05;5.50;;;5.00;;
8293;SDS011;4185;41.506;24.938;2022-08-02T02:54:34;4.60;;;4.20;;
8293;SDS011;4185;41.506;24.938;2022-08-02T02:57:03;4.50;;;4.10;;
8293;SDS011;4185;41.506;24.938;2022-08-02T02:59:31;4.90;;;4.33;;
8293;SDS011;4185;41.506;24.938;2022-08-02T03:02:00;4.87;;;4.47;;
8293;SDS011;4185;41.506;24.938;2022-08-02T03:04:28;5.33;;;4.67;;
8293;SDS011;4185;41.506;24.938;2022-08-02T03:06:57;5.37;;;4.80;;
8293;SDS011;4185;41.506;24.938;2022-08-02T03:09:25;5.00;;;4.60;;
8293;SDS011;4185;41.506;24.938;2022-08-02T03:11:52;5.70;;;5.20;;
8293;SDS011;4185;41.506;24.938;2022-08-02T03:14:20;6.03;;;5.43;;
8293;SDS011;4185;41.506;24.938;2022-08-02T03:16:49;5.37;;;4.97;;
8293;SDS011;4185;41.506;24.938;2022-08-02T03:19:17;5.20;;;4.80;;
8293;SDS011;4185;41.506;24.938;2022-08-02T03:21:44;5.27;;;4.67;;
8293;SDS011;4185;41.506;24.938;2022-08-02T03:24:14;4.90;;;4.50;;
8293;SDS011;4185;41.506;24.938;2022-08-02T03:26:41;4.73;;;4.33;;
8293;SDS011;4185;41.506;24.938;2022-08-02T03:29:08;4.30;;;4.00;;
8293;SDS011;4185;41.506;24.938;2022-08-02T03:31:35;5.43;;;4.93;;
8293;SDS011;4185;41.506;24.938;2022-08-02T03:34:02;5.30;;;4.80;;
8293;SDS011;4185;41.506;24.938;2022-08-02T03:36:30;5.10;;;4.70;;
8293;SDS011;4185;41.506;24.938;2022-08-02T03:38:58;5.00;;;4.60;;
8293;SDS011;4185;41.506;24.938;2022-08-02T03:41:28;5.73;;;4.97;;
8293;SDS011;4185;41.506;24.938;2022-08-02T03:43:56;5.43;;;4.93;;
8293;SDS011;4185;41.506;24.938;2022-08-02T03:46:24;4.90;;;4.50;;
8293;SDS011;4185;41.506;24.938;2022-08-02T03:48:51;5.50;;;5.00;;
8293;SDS011;4185;41.506;24.938;2022-08-02T03:51:19;5.53;;;5.03;;
8293;SDS011;4185;41.506;24.938;2022-08-02T03:53:47;5.90;;;5.20;;
8293;SDS011;4185;41.506;24.938;2022-08-02T03:56:15;6.63;;;5.37;;
8293;SDS011;4185;41.506;24.938;2022-08-02T03:58:43;5.63;;;5.13;;
8293;SDS011;4185;41.506;24.938;2022-08-02T04:01:10;5.67;;;5.07;;
8293;SDS011;4185;41.506;24.938;2022-08-02T04:03:37;5.83;;;5.33;;
8293;SDS011;4185;41.506;24.938;2022-08-02T04:06:04;5.93;;;5.43;;
8293;SDS011;4185;41.506;24.938;2022-08-02T04:08:31;5.70;;;5.20;;
8293;SDS011;4185;41.506;24.938;2022-08-02T04:10:58;5.73;;;5.23;;
8293;SDS011;4185;41.506;24.938;2022-08-02T04:13:44;5.57;;;5.07;;
8293;SDS011;4185;41.506;24.938;2022-08-02T04:16:13;6.00;;;5.40;;
8293;SDS011;4185;41.506;24.938;2022-08-02T04:18:47;5.93;;;5.43;;
8293;SDS011;4185;41.506;24.938;2022-08-02T04:21:19;5.33;;;4.87;;
8293;SDS011;4185;41.506;24.938;2022-08-02T04:23:47;5.97;;;5.47;;
8293;SDS011;4185;41.506;24.938;2022-08-02T04:26:15;7.03;;;5.53;;
8293;SDS011;4185;41.506;24.938;2022-08-02T04:28:45;5.30;;;4.87;;
8293;SDS011;4185;41.506;24.938;2022-08-02T04:31:13;6.07;;;4.70;;
8293;SDS011;4185;41.506;24.938;2022-08-02T04:33:40;5.13;;;4.63;;
8293;SDS011;4185;41.506;24.938;2022-08-02T04:36:08;5.23;;;4.63;;
8293;SDS011;4185;41.506;24.938;2022-08-02T04:38:38;7.00;;;4.53;;
8293;SDS011;4185;41.506;24.938;2022-08-02T04:41:05;5.00;;;4.50;;
8293;SDS011;4185;41.506;24.938;2022-08-02T04:43:32;5.10;;;4.70;;
8293;SDS011;4185;41.506;24.938;2022-08-02T04:46:00;6.00;;;5.40;;
8293;SDS011;4185;41.506;24.938;2022-08-02T04:48:28;5.80;;;5.30;;
8293;SDS011;4185;41.506;24.938;2022-08-02T04:50:55;4.93;;;4.53;;
8293;SDS011;4185;41.506;24.938;2022-08-02T04:53:22;5.67;;;5.07;;
8293;SDS011;4185;41.506;24.938;2022-08-02T04:55:49;5.23;;;4.83;;
8293;SDS011;4185;41.506;24.938;2022-08-02T04:58:16;4.83;;;4.20;;
8293;SDS011;4185;41.506;24.938;2022-08-02T05:00:43;6.90;;;5.03;;
8293;SDS011;4185;41.506;24.938;2022-08-02T05:03:11;4.93;;;4.37;;
8293;SDS011;4185;41.506;24.938;2022-08-02T05:05:38;5.10;;;4.70;;
8293;SDS011;4185;41.506;24.938;2022-08-02T05:08:05;4.90;;;4.50;;
8293;SDS011;4185;41.506;24.938;2022-08-02T05:10:32;5.27;;;4.77;;
8293;SDS011;4185;41.506;24.938;2022-08-02T05:12:59;4.87;;;4.47;;
8293;SDS011;4185;41.506;24.938;2022-08-02T05:15:26;5.20;;;4.80;;
8293;SDS011;4185;41.506;24.938;2022-08-02T05:17:53;5.37;;;4.83;;
8293;SDS011;4185;41.506;24.938;2022-08-02T05:20:21;5.10;;;4.70;;
8293;SDS011;4185;41.506;24.938;2022-08-02T05:22:47;6.43;;;5.00;;
8293;SDS011;4185;41.506;24.938;2022-08-02T05:25:14;4.90;;;4.50;;
8293;SDS011;4185;41.506;24.938;2022-08-02T05:27:41;5.60;;;5.10;;
8293;SDS011;4185;41.506;24.938;2022-08-02T05:30:08;5.13;;;4.63;;
8293;SDS011;4185;41.506;24.938;2022-08-02T05:32:41;5.50;;;4.60;;
8293;SDS011;4185;41.506;24.938;2022-08-02T05:35:09;4.93;;;4.53;;
8293;SDS011;4185;41.506;24.938;2022-08-02T05:37:38;4.50;;;4.10;;
8293;SDS011;4185;41.506;24.938;2022-08-02T05:40:05;4.73;;;4.33;;
8293;SDS011;4185;41.506;24.938;2022-08-02T05:42:33;4.90;;;4.50;;
8293;SDS011;4185;41.506;24.938;2022-08-02T05:45:00;5.67;;;4.77;;
8293;SDS011;4185;41.506;24.938;2022-08-02T05:47:26;6.43;;;4.70;;
8293;SDS011;4185;41.506;24.938;2022-08-02T05:49:55;5.03;;;4.47;;
8293;SDS011;4185;41.506;24.938;2022-08-02T05:52:23;5.07;;;4.37;;
8293;SDS011;4185;41.506;24.938;2022-08-02T05:54:56;5.83;;;4.60;;
8293;SDS011;4185;41.506;24.938;2022-08-02T05:57:33;4.77;;;4.37;;
8293;SDS011;4185;41.506;24.938;2022-08-02T06:00:08;5.17;;;4.20;;
8293;SDS011;4185;41.506;24.938;2022-08-02T06:02:45;4.83;;;4.43;;
8293;SDS011;4185;41.506;24.938;2022-08-02T06:05:23;5.03;;;4.53;;
8293;SDS011;4185;41.506;24.938;2022-08-02T06:07:52;4.80;;;4.40;;
8293;SDS011;4185;41.506;24.938;2022-08-02T06:10:22;4.60;;;4.20;;
8293;SDS011;4185;41.506;24.938;2022-08-02T06:12:53;5.00;;;4.57;;
8293;SDS011;4185;41.506;24.938;2022-08-02T06:15:26;4.70;;;4.33;;
8293;SDS011;4185;41.506;24.938;2022-08-02T06:17:53;4.60;;;4.13;;
8293;SDS011;4185;41.506;24.938;2022-08-02T06:20:22;4.97;;;4.47;;
8293;SDS011;4185;41.506;24.938;2022-08-02T06:22:52;6.23;;;4.23;;
8293;SDS011;4185;41.506;24.938;2022-08-02T06:25:25;4.97;;;4.57;;
8293;SDS011;4185;41.506;24.938;2022-08-02T06:27:53;4.17;;;3.87;;
8293;SDS011;4185;41.506;24.938;2022-08-02T06:30:21;4.53;;;3.73;;
8293;SDS011;4185;41.506;24.938;2022-08-02T06:32:48;4.33;;;3.93;;
8293;SDS011;4185;41.506;24.938;2022-08-02T06:35:17;4.20;;;3.90;;
8293;SDS011;4185;41.506;24.938;2022-08-02T06:37:46;4.43;;;4.10;;
8293;SDS011;4185;41.506;24.938;2022-08-02T06:40:18;4.37;;;3.97;;
8293;SDS011;4185;41.506;24.938;2022-08-02T06:42:56;4.10;;;3.80;;
8293;SDS011;4185;41.506;24.938;2022-08-02T06:45:31;4.40;;;3.63;;
8293;SDS011;4185;41.506;24.938;2022-08-02T06:47:59;4.07;;;3.67;;
8293;SDS011;4185;41.506;24.938;2022-08-02T06:50:26;7.37;;;3.90;;
8293;SDS011;4185;41.506;24.938;2022-08-02T06:52:53;4.20;;;3.80;;
8293;SDS011;4185;41.506;24.938;2022-08-02T06:55:20;2.83;;;2.50;;
8293;SDS011;4185;41.506;24.938;2022-08-02T06:57:47;3.30;;;3.00;;
8293;SDS011;4185;41.506;24.938;2022-08-02T07:00:15;3.20;;;2.47;;
8293;SDS011;4185;41.506;24.938;2022-08-02T07:02:42;1.83;;;1.73;;
8293;SDS011;4185;41.506;24.938;2022-08-02T07:05:09;1.67;;;1.57;;
8293;SDS011;4185;41.506;24.938;2022-08-02T07:07:36;1.80;;;1.67;;
8293;SDS011;4185;41.506;24.938;2022-08-02T07:10:03;2.60;;;1.70;;
8293;SDS011;4185;41.506;24.938;2022-08-02T07:12:31;1.83;;;1.73;;
8293;SDS011;4185;41.506;24.938;2022-08-02T07:15:00;1.70;;;1.60;;
8293;SDS011;4185;41.506;24.938;2022-08-02T07:17:29;1.70;;;1.60;;
8293;SDS011;4185;41.506;24.938;2022-08-02T07:19:56;1.60;;;1.50;;
8293;SDS011;4185;41.506;24.938;2022-08-02T07:22:24;2.63;;;1.80;;
8293;SDS011;4185;41.506;24.938;2022-08-02T07:24:52;2.50;;;1.60;;
8293;SDS011;4185;41.506;24.938;2022-08-02T07:27:19;1.60;;;1.50;;
8293;SDS011;4185;41.506;24.938;2022-08-02T07:29:46;1.87;;;1.60;;
8293;SDS011;4185;41.506;24.938;2022-08-02T07:32:14;1.77;;;1.67;;
8293;SDS011;4185;41.506;24.938;2022-08-02T07:34:42;1.80;;;1.70;;
8293;SDS011;4185;41.506;24.938;2022-08-02T07:37:10;1.70;;;1.60;;
8293;SDS011;4185;41.506;24.938;2022-08-02T07:39:37;3.13;;;2.03;;
8293;SDS011;4185;41.506;24.938;2022-08-02T07:42:04;2.27;;;1.80;;
8293;SDS011;4185;41.506;24.938;2022-08-02T07:44:31;1.90;;;1.80;;
8293;SDS011;4185;41.506;24.938;2022-08-02T07:46:59;1.83;;;1.73;;
8293;SDS011;4185;41.506;24.938;2022-08-02T07:49:26;2.20;;;2.10;;
8293;SDS011;4185;41.506;24.938;2022-08-02T07:51:54;2.20;;;1.87;;
8293;SDS011;4185;41.506;24.938;2022-08-02T07:54:22;1.60;;;1.50;;
8293;SDS011;4185;41.506;24.938;2022-08-02T07:56:49;2.30;;;1.47;;
8293;SDS011;4185;41.506;24.938;2022-08-02T07:59:17;1.93;;;1.83;;
8293;SDS011;4185;41.506;24.938;2022-08-02T08:01:44;3.80;;;1.90;;
8293;SDS011;4185;41.506;24.938;2022-08-02T08:04:13;1.77;;;1.67;;
8293;SDS011;4185;41.506;24.938;2022-08-02T08:06:40;2.10;;;1.90;;
8293;SDS011;4185;41.506;24.938;2022-08-02T08:09:08;1.93;;;1.83;;
8293;SDS011;4185;41.506;24.938;2022-08-02T08:11:36;1.90;;;1.80;;
8293;SDS011;4185;41.506;24.938;2022-08-02T08:14:03;2.23;;;1.60;;
8293;SDS011;4185;41.506;24.938;2022-08-02T08:16:30;1.87;;;1.70;;
8293;SDS011;4185;41.506;24.938;2022-08-02T08:18:57;1.73;;;1.63;;
8293;SDS011;4185;41.506;24.938;2022-08-02T08:21:24;1.93;;;1.83;;
8293;SDS011;4185;41.506;24.938;2022-08-02T08:23:51;1.83;;;1.73;;
8293;SDS011;4185;41.506;24.938;2022-08-02T08:26:19;2.00;;;1.90;;
8293;SDS011;4185;41.506;24.938;2022-08-02T08:28:45;1.80;;;1.70;;
8293;SDS011;4185;41.506;24.938;2022-08-02T08:31:12;2.30;;;2.20;;
8293;SDS011;4185;41.506;24.938;2022-08-02T08:33:39;2.13;;;1.90;;
8293;SDS011;4185;41.506;24.938;2022-08-02T08:36:06;1.90;;;1.80;;
8293;SDS011;4185;41.506;24.938;2022-08-02T08:38:33;2.43;;;2.20;;
8293;SDS011;4185;41.506;24.938;2022-08-02T08:41:00;2.85;;;1.90;;
8293;SDS011;4185;41.506;24.938;2022-08-02T08:43:28;2.00;;;1.70;;
8293;SDS011;4185;41.506;24.938;2022-08-02T08:45:55;1.83;;;1.60;;
8293;SDS011;4185;41.506;24.938;2022-08-02T08:48:22;1.90;;;1.80;;
8293;SDS011;4185;41.506;24.938;2022-08-02T08:50:52;1.90;;;1.80;;
8293;SDS011;4185;41.506;24.938;2022-08-02T08:53:21;3.50;;;3.30;;
8293;SDS011;4185;41.506;24.938;2022-08-02T08:55:52;2.47;;;1.90;;
8293;SDS011;4185;41.506;24.938;2022-08-02T08:58:20;1.80;;;1.70;;
8293;SDS011;4185;41.506;24.938;2022-08-02T09:00:49;2.23;;;2.03;;
8293;SDS011;4185;41.506;24.938;2022-08-02T09:03:16;3.03;;;2.83;;
8293;SDS011;4185;41.506;24.938;2022-08-02T09:05:43;2.10;;;1.90;;
8293;SDS011;4185;41.506;24.938;2022-08-02T09:08:11;2.28;;;2.08;;
8293;SDS011;4185;41.506;24.938;2022-08-02T09:10:39;2.08;;;1.70;;
8293;SDS011;4185;41.506;24.938;2022-08-02T09:13:12;2.00;;;1.90;;
8293;SDS011;4185;41.506;24.938;2022-08-02T09:15:41;2.53;;;2.33;;
8293;SDS011;4185;41.506;24.938;2022-08-02T09:18:11;1.80;;;1.70;;
8293;SDS011;4185;41.506;24.938;2022-08-02T09:20:52;2.30;;;2.10;;
8293;SDS011;4185;41.506;24.938;2022-08-02T09:23:22;1.90;;;1.80;;
8293;SDS011;4185;41.506;24.938;2022-08-02T09:25:54;2.30;;;2.10;;
8293;SDS011;4185;41.506;24.938;2022-08-02T09:28:24;2.28;;;2.08;;
8293;SDS011;4185;41.506;24.938;2022-08-02T09:30:51;3.47;;;2.03;;
8293;SDS011;4185;41.506;24.938;2022-08-02T09:33:25;1.85;;;1.70;;
8293;SDS011;4185;41.506;24.938;2022-08-02T09:35:57;2.53;;;2.00;;
8293;SDS011;4185;41.506;24.938;2022-08-02T09:38:26;2.20;;;2.00;;
8293;SDS011;4185;41.506;24.938;2022-08-02T09:40:53;2.50;;;2.30;;
8293;SDS011;4185;41.506;24.938;2022-08-02T09:43:20;2.45;;;2.25;;
8293;SDS011;4185;41.506;24.938;2022-08-02T09:45:49;2.13;;;1.95;;
8293;SDS011;4185;41.506;24.938;2022-08-02T09:48:16;2.05;;;1.95;;
8293;SDS011;4185;41.506;24.938;2022-08-02T09:50:44;2.95;;;2.30;;
8293;SDS011;4185;41.506;24.938;2022-08-02T09:53:11;1.92;;;1.83;;
8293;SDS011;4185;41.506;24.938;2022-08-02T09:55:39;2.20;;;2.10;;
8293;SDS011;4185;41.506;24.938;2022-08-02T09:58:16;1.60;;;1.50;;
8293;SDS011;4185;41.506;24.938;2022-08-02T10:00:51;2.08;;;1.98;;
8293;SDS011;4185;41.506;24.938;2022-08-02T10:03:19;2.35;;;2.15;;
8293;SDS011;4185;41.506;24.938;2022-08-02T10:05:48;2.05;;;1.95;;
8293;SDS011;4185;41.506;24.938;2022-08-02T10:08:17;2.75;;;2.10;;
8293;SDS011;4185;41.506;24.938;2022-08-02T10:10:45;2.30;;;2.10;;
8293;SDS011;4185;41.506;24.938;2022-08-02T10:13:12;2.15;;;1.95;;
8293;SDS011;4185;41.506;24.938;2022-08-02T10:15:40;2.33;;;2.13;;
8293;SDS011;4185;41.506;24.938;2022-08-02T10:18:07;2.75;;;2.20;;
8293;SDS011;4185;41.506;24.938;2022-08-02T10:20:42;2.42;;;2.22;;
8293;SDS011;4185;41.506;24.938;2022-08-02T10:23:12;1.95;;;1.80;;
8293;SDS011;4185;41.506;24.938;2022-08-02T10:25:40;2.15;;;2.03;;
8293;SDS011;4185;41.506;24.938;2022-08-02T10:28:10;2.70;;;2.10;;
8293;SDS011;4185;41.506;24.938;2022-08-02T10:30:41;2.03;;;1.65;;
8293;SDS011;4185;41.506;24.938;2022-08-02T10:33:12;2.17;;;1.95;;
8293;SDS011;4185;41.506;24.938;2022-08-02T10:35:42;2.20;;;2.00;;
8293;SDS011;4185;41.506;24.938;2022-08-02T10:38:12;2.13;;;2.03;;
8293;SDS011;4185;41.506;24.938;2022-08-02T10:40:43;5.53;;;2.42;;
8293;SDS011;4185;41.506;24.938;2022-08-02T10:43:11;2.30;;;2.10;;
8293;SDS011;4185;41.506;24.938;2022-08-02T10:45:39;2.13;;;2.03;;
8293;SDS011;4185;41.506;24.938;2022-08-02T10:48:07;3.63;;;1.92;;
8293;SDS011;4185;41.506;24.938;2022-08-02T10:53:20;3.35;;;2.65;;
8293;SDS011;4185;41.506;24.938;2022-08-02T10:55:48;2.00;;;1.90;;
8293;SDS011;4185;41.506;24.938;2022-08-02T10:58:15;2.40;;;2.20;;
8293;SDS011;4185;41.506;24.938;2022-08-02T11:00:43;2.00;;;1.85;;
8293;SDS011;4185;41.506;24.938;2022-08-02T11:06:06;4.60;;;2.45;;
8293;SDS011;4185;41.506;24.938;2022-08-02T11:08:35;5.43;;;1.90;;
8293;SDS011;4185;41.506;24.938;2022-08-02T11:11:14;2.60;;;2.05;;
8293;SDS011;4185;41.506;24.938;2022-08-02T11:13:58;2.40;;;2.00;;
8293;SDS011;4185;41.506;24.938;2022-08-02T11:19:27;2.38;;;2.03;;
8293;SDS011;4185;41.506;24.938;2022-08-02T11:21:59;5.28;;;2.08;;
8293;SDS011;4185;41.506;24.938;2022-08-02T11:24:28;2.05;;;1.95;;
8293;SDS011;4185;41.506;24.938;2022-08-02T11:26:56;2.45;;;2.17;;
8293;SDS011;4185;41.506;24.938;2022-08-02T11:29:31;2.30;;;2.10;;
8293;SDS011;4185;41.506;24.938;2022-08-02T11:31:59;2.50;;;2.30;;
8293;SDS011;4185;41.506;24.938;2022-08-02T11:34:26;2.40;;;2.10;;
8293;SDS011;4185;41.506;24.938;2022-08-02T11:36:56;3.17;;;2.33;;
8293;SDS011;4185;41.506;24.938;2022-08-02T11:39:23;2.42;;;2.17;;
8293;SDS011;4185;41.506;24.938;2022-08-02T11:41:51;2.08;;;1.98;;
8293;SDS011;4185;41.506;24.938;2022-08-02T11:44:21;2.63;;;2.20;;
8293;SDS011;4185;41.506;24.938;2022-08-02T11:46:55;2.88;;;2.15;;
8293;SDS011;4185;41.506;24.938;2022-08-02T11:49:23;2.50;;;2.30;;
8293;SDS011;4185;41.506;24.938;2022-08-02T11:51:51;2.70;;;2.50;;
8293;SDS011;4185;41.506;24.938;2022-08-02T11:54:25;3.38;;;2.05;;
8293;SDS011;4185;41.506;24.938;2022-08-02T11:56:55;2.38;;;2.20;;
8293;SDS011;4185;41.506;24.938;2022-08-02T11:59:36;2.00;;;1.90;;
8293;SDS011;4185;41.506;24.938;2022-08-02T12:02:04;3.25;;;2.00;;
8293;SDS011;4185;41.506;24.938;2022-08-02T12:04:31;2.78;;;2.10;;
8293;SDS011;4185;41.506;24.938;2022-08-02T12:06:59;2.00;;;1.90;;
8293;SDS011;4185;41.506;24.938;2022-08-02T12:09:27;1.90;;;1.80;;
8293;SDS011;4185;41.506;24.938;2022-08-02T12:11:58;2.20;;;2.00;;
8293;SDS011;4185;41.506;24.938;2022-08-02T12:14:26;2.42;;;1.50;;
8293;SDS011;4185;41.506;24.938;2022-08-02T12:16:54;1.98;;;1.88;;
8293;SDS011;4185;41.506;24.938;2022-08-02T12:19:39;2.25;;;1.80;;
8293;SDS011;4185;41.506;24.938;2022-08-02T12:22:16;2.00;;;1.90;;
8293;SDS011;4185;41.506;24.938;2022-08-02T12:24:46;1.92;;;1.83;;
8293;SDS011;4185;41.506;24.938;2022-08-02T12:27:32;2.03;;;1.65;;
8293;SDS011;4185;41.506;24.938;2022-08-02T12:30:01;2.00;;;1.83;;
8293;SDS011;4185;41.506;24.938;2022-08-02T12:32:31;2.22;;;1.80;;
8293;SDS011;4185;41.506;24.938;2022-08-02T12:35:05;1.92;;;1.83;;
8293;SDS011;4185;41.506;24.938;2022-08-02T12:37:35;2.20;;;2.00;;
8293;SDS011;4185;41.506;24.938;2022-08-02T12:40:16;2.10;;;1.90;;
8293;SDS011;4185;41.506;24.938;2022-08-02T12:42:46;2.25;;;1.95;;
8293;SDS011;4185;41.506;24.938;2022-08-02T12:45:13;2.20;;;2.00;;
8293;SDS011;4185;41.506;24.938;2022-08-02T12:47:44;2.53;;;1.98;;
8293;SDS011;4185;41.506;24.938;2022-08-02T12:50:13;1.88;;;1.77;;
8293;SDS011;4185;41.506;24.938;2022-08-02T12:52:42;1.80;;;1.70;;
8293;SDS011;4185;41.506;24.938;2022-08-02T12:55:16;1.85;;;1.70;;
8293;SDS011;4185;41.506;24.938;2022-08-02T12:57:53;2.65;;;1.80;;
8293;SDS011;4185;41.506;24.938;2022-08-02T13:00:22;2.45;;;1.90;;
8293;SDS011;4185;41.506;24.938;2022-08-02T13:02:50;1.90;;;1.80;;
8293;SDS011;4185;41.506;24.938;2022-08-02T13:05:17;1.48;;;1.38;;
8293;SDS011;4185;41.506;24.938;2022-08-02T13:07:44;1.63;;;1.52;;
8293;SDS011;4185;41.506;24.938;2022-08-02T13:10:11;1.95;;;1.75;;
8293;SDS011;4185;41.506;24.938;2022-08-02T13:12:38;2.08;;;1.77;;
8293;SDS011;4185;41.506;24.938;2022-08-02T13:15:07;1.90;;;1.80;;
8293;SDS011;4185;41.506;24.938;2022-08-02T13:17:35;1.75;;;1.58;;
8293;SDS011;4185;41.506;24.938;2022-08-02T13:20:03;1.92;;;1.58;;
8293;SDS011;4185;41.506;24.938;2022-08-02T13:22:31;2.88;;;1.50;;
8293;SDS011;4185;41.506;24.938;2022-08-02T13:24:58;1.67;;;1.50;;
8293;SDS011;4185;41.506;24.938;2022-08-02T13:27:25;4.57;;;1.65;;
8293;SDS011;4185;41.506;24.938;2022-08-02T13:29:52;1.83;;;1.73;;
8293;SDS011;4185;41.506;24.938;2022-08-02T13:32:22;1.70;;;1.60;;
8293;SDS011;4185;41.506;24.938;2022-08-02T13:34:50;4.50;;;1.55;;
8293;SDS011;4185;41.506;24.938;2022-08-02T13:37:17;1.73;;;1.60;;
8293;SDS011;4185;41.506;24.938;2022-08-02T13:39:44;1.90;;;1.58;;
8293;SDS011;4185;41.506;24.938;2022-08-02T13:42:11;2.08;;;1.60;;
8293;SDS011;4185;41.506;24.938;2022-08-02T13:44:37;1.65;;;1.55;;
8293;SDS011;4185;41.506;24.938;2022-08-02T13:47:04;2.55;;;1.23;;
8293;SDS011;4185;41.506;24.938;2022-08-02T13:49:33;1.40;;;1.30;;
8293;SDS011;4185;41.506;24.938;2022-08-02T13:52:00;1.73;;;1.52;;
8293;SDS011;4185;41.506;24.938;2022-08-02T13:54:27;1.60;;;1.50;;
8293;SDS011;4185;41.506;24.938;2022-08-02T13:56:54;1.40;;;1.30;;
8293;SDS011;4185;41.506;24.938;2022-08-02T13:59:21;1.38;;;1.23;;
8293;SDS011;4185;41.506;24.938;2022-08-02T14:01:47;1.63;;;1.52;;
8293;SDS011;4185;41.506;24.938;2022-08-02T14:04:14;1.40;;;1.30;;
8293;SDS011;4185;41.506;24.938;2022-08-02T14:06:43;2.13;;;1.45;;
8293;SDS011;4185;41.506;24.938;2022-08-02T14:09:09;1.50;;;1.40;;
8293;SDS011;4185;41.506;24.938;2022-08-02T14:11:36;1.55;;;1.38;;
8293;SDS011;4185;41.506;24.938;2022-08-02T14:14:03;1.77;;;1.67;;
8293;SDS011;4185;41.506;24.938;2022-08-02T14:16:30;2.15;;;1.67;;
8293;SDS011;4185;41.506;24.938;2022-08-02T14:18:57;2.67;;;1.38;;
8293;SDS011;4185;41.506;24.938;2022-08-02T14:21:23;1.65;;;1.55;;
8293;SDS011;4185;41.506;24.938;2022-08-02T14:23:52;1.60;;;1.50;;
8293;SDS011;4185;41.506;24.938;2022-08-02T14:26:18;1.60;;;1.50;;
8293;SDS011;4185;41.506;24.938;2022-08-02T14:28:45;1.40;;;1.30;;
8293;SDS011;4185;41.506;24.938;2022-08-02T14:31:12;1.50;;;1.40;;
8293;SDS011;4185;41.506;24.938;2022-08-02T14:33:39;2.35;;;1.38;;
8293;SDS011;4185;41.506;24.938;2022-08-02T14:36:06;2.72;;;1.30;;
8293;SDS011;4185;41.506;24.938;2022-08-02T14:38:33;2.45;;;1.67;;
8293;SDS011;4185;41.506;24.938;2022-08-02T14:41:03;1.42;;;1.33;;
8293;SDS011;4185;41.506;24.938;2022-08-02T14:43:30;1.38;;;1.27;;
8293;SDS011;4185;41.506;24.938;2022-08-02T14:46:14;1.27;;;1.17;;
8293;SDS011;4185;41.506;24.938;2022-08-02T14:48:41;1.38;;;1.20;;
8293;SDS011;4185;41.506;24.938;2022-08-02T14:51:08;1.73;;;1.60;;
8293;SDS011;4185;41.506;24.938;2022-08-02T14:53:37;2.25;;;1.60;;
8293;SDS011;4185;41.506;24.938;2022-08-02T14:56:05;1.50;;;1.38;;
8293;SDS011;4185;41.506;24.938;2022-08-02T14:58:32;1.50;;;1.40;;
8293;SDS011;4185;41.506;24.938;2022-08-02T15:00:59;1.33;;;1.23;;
8293;SDS011;4185;41.506;24.938;2022-08-02T15:03:26;1.65;;;1.23;;
8293;SDS011;4185;41.506;24.938;2022-08-02T15:05:53;1.60;;;1.50;;
8293;SDS011;4185;41.506;24.938;2022-08-02T15:08:20;1.30;;;1.20;;
8293;SDS011;4185;41.506;24.938;2022-08-02T15:10:46;1.25;;;1.15;;
8293;SDS011;4185;41.506;24.938;2022-08-02T15:13:15;2.75;;;1.58;;
8293;SDS011;4185;41.506;24.938;2022-08-02T15:15:42;1.40;;;1.27;;
8293;SDS011;4185;41.506;24.938;2022-08-02T15:18:08;1.20;;;1.10;;
8293;SDS011;4185;41.506;24.938;2022-08-02T15:20:35;1.80;;;1.70;;
8293;SDS011;4185;41.506;24.938;2022-08-02T15:23:02;2.17;;;1.92;;